Hlavní strana
METAR-TAF:

METAR-TAF

Letiště :

Linköping, Švédsko

zeměpisná šířka: 58-24N, zeměpisná délka: 015-41E, výška: 52 m

Aktuální stav počasí

Zpráva byla vytvořena před 32 minutami, v 06:50 UTC
Jižní vítr 3 kt, proměnlivý mezi jihojihovýchodním a jihozápadním
Teplota 1°C
Vlhkost vzduchu 100%
Tlak 999 hPa
Viditelnost 10 km a více

METAR: ESSL 290650Z AUTO 19003KT 150V230 9999 OVC005/// 01/01 Q0999

Čas: 08:22 (07:22 UTC)

Předpověď počasí

Zpráva byla vytvořena před 2 hodinami a 52 minutami, v 04:30 UTC
Předpověď platná od 29 v 05 UTC do 29 v 07 UTC
Jižní vítr 5 kt
Viditelnost 10 km a více
Skoro jasno ve výšce 900 ft
Oblačno až skoro zataženo ve výšce 1500 ft
Pravděpodobnost 40%
od 29 v 05 UTC do 29 v 07 UTC
Oblačno až skoro zataženo ve výšce 900 ft

TAF: ESSL 290430Z 2905/2907 18005KT 9999 FEW009 BKN015 PROB40 2905/2907 BKN009

Stav a předpovědi počasí z více než 4 000 letišť (zprávy METAR a TAF).

Červené a žluté tečky na mapě představují dostupné meteorologické stanice.

Když kurzor umístíte na tečku, zobrazí se název stanice.

Pak kliknutím zobrazíte stav a předpověď počasí.

Chcete-li změnit mapu, kliknutím na zelené tlačítko se znaménkem +mapu přiblížíte, kliknutím na zelené tlačítko se znaménkem – mapu oddálíte a kliknutím na zelené šipky přejdete na sousední mapy.


METAR-TAF: